createdAt,value
2019-05-16T00:00:49.583Z,1016.13
2019-05-16T00:01:48.982Z,1016.18
2019-05-16T00:02:48.974Z,1016.17
2019-05-16T00:03:49.160Z,1016.20
2019-05-16T00:04:48.943Z,1016.17
2019-05-16T00:05:54.144Z,1016.13
2019-05-16T00:06:49.919Z,1016.13
2019-05-16T00:07:49.296Z,1016.12
2019-05-16T00:08:48.899Z,1016.12
2019-05-16T00:09:48.889Z,1016.09
2019-05-16T00:10:48.874Z,1016.07
2019-05-16T00:11:48.919Z,1016.11
2019-05-16T00:12:48.866Z,1016.11
2019-05-16T00:13:49.078Z,1016.09
2019-05-16T00:14:49.089Z,1016.11
2019-05-16T00:15:48.824Z,1016.05
2019-05-16T00:16:48.807Z,1016.06
2019-05-16T00:17:49.078Z,1016.07
2019-05-16T00:18:48.786Z,1016.04
2019-05-16T00:19:48.772Z,1016.05
2019-05-16T00:20:49.235Z,1016.01
2019-05-16T00:21:48.888Z,1016.01
2019-05-16T00:22:48.750Z,1016.05
2019-05-16T00:23:48.824Z,1015.97
2019-05-16T00:24:48.866Z,1015.97
2019-05-16T00:25:48.707Z,1015.99
2019-05-16T00:26:48.725Z,1015.97
2019-05-16T00:27:48.691Z,1015.97
2019-05-16T00:28:48.724Z,1015.96
2019-05-16T00:29:48.874Z,1015.95
2019-05-16T00:30:48.856Z,1016.03
2019-05-16T00:31:48.761Z,1015.93
2019-05-16T00:32:48.635Z,1015.98
2019-05-16T00:33:48.878Z,1015.92
2019-05-16T00:34:48.602Z,1015.95
2019-05-16T00:36:01.064Z,1015.95
2019-05-16T00:36:49.582Z,1015.92
2019-05-16T00:37:48.670Z,1015.91
2019-05-16T00:38:48.691Z,1015.90
2019-05-16T00:39:48.552Z,1015.88
2019-05-16T00:40:48.794Z,1015.84
2019-05-16T00:41:48.523Z,1015.87
2019-05-16T00:42:49.312Z,1015.88
2019-05-16T00:43:48.772Z,1015.82
2019-05-16T00:44:48.489Z,1015.83
2019-05-16T00:45:48.769Z,1015.85
2019-05-16T00:46:48.687Z,1015.86
2019-05-16T00:47:48.464Z,1015.86
2019-05-16T00:48:48.756Z,1015.85
2019-05-16T00:49:48.433Z,1015.82
2019-05-16T00:50:48.423Z,1015.81
2019-05-16T00:51:48.414Z,1015.82
2019-05-16T00:52:48.917Z,1015.79
2019-05-16T00:53:48.497Z,1015.77
2019-05-16T00:54:48.692Z,1015.76
2019-05-16T00:55:48.364Z,1015.72
2019-05-16T00:56:48.773Z,1015.70
2019-05-16T00:57:48.392Z,1015.74
2019-05-16T00:58:48.535Z,1015.68
2019-05-16T00:59:48.593Z,1015.73
2019-05-16T01:00:49.943Z,1015.76
2019-05-16T01:01:50.032Z,1015.73
2019-05-16T01:02:48.686Z,1015.68
2019-05-16T01:03:48.495Z,1015.71
2019-05-16T01:04:48.733Z,1015.65
2019-05-16T01:05:48.287Z,1015.58
2019-05-16T01:06:48.501Z,1015.57
2019-05-16T01:07:48.270Z,1015.60
2019-05-16T01:08:48.910Z,1015.57
2019-05-16T01:09:48.787Z,1015.56
2019-05-16T01:10:51.344Z,1015.58
2019-05-16T01:11:48.623Z,1015.61
2019-05-16T01:12:48.217Z,1015.56
2019-05-16T01:13:48.723Z,1015.53
2019-05-16T01:14:48.149Z,1015.51
2019-05-16T01:15:48.575Z,1015.46
2019-05-16T01:16:48.792Z,1015.45
2019-05-16T01:17:48.484Z,1015.45
2019-05-16T01:18:48.755Z,1015.45
2019-05-16T01:19:48.511Z,1015.52
2019-05-16T01:20:48.361Z,1015.45
2019-05-16T01:21:48.426Z,1015.49
2019-05-16T01:22:49.000Z,1015.41
2019-05-16T01:23:48.316Z,1015.46
2019-05-16T01:24:49.242Z,1015.44
2019-05-16T01:25:48.566Z,1015.39
2019-05-16T01:26:48.460Z,1015.42
2019-05-16T01:27:48.000Z,1015.44
2019-05-16T01:28:48.488Z,1015.49
2019-05-16T01:29:47.978Z,1015.48
2019-05-16T01:30:48.788Z,1015.40
2019-05-16T01:31:48.360Z,1015.38
2019-05-16T01:32:49.203Z,1015.37
2019-05-16T01:33:47.955Z,1015.37
2019-05-16T01:34:48.382Z,1015.31
2019-05-16T01:35:47.911Z,1015.30
2019-05-16T01:36:48.594Z,1015.30
2019-05-16T01:37:48.748Z,1015.33
2019-05-16T01:38:48.206Z,1015.34
2019-05-16T01:39:48.389Z,1015.30
2019-05-16T01:40:49.091Z,1015.29
2019-05-16T01:41:48.137Z,1015.26
2019-05-16T01:42:48.955Z,1015.30
2019-05-16T01:43:48.372Z,1015.17
2019-05-16T01:44:48.680Z,1015.23
2019-05-16T01:45:48.646Z,1015.17
2019-05-16T01:46:48.133Z,1015.20
2019-05-16T01:47:48.341Z,1015.19
2019-05-16T01:48:48.501Z,1015.20
2019-05-16T01:49:48.729Z,1015.16
2019-05-16T01:50:48.229Z,1015.14
2019-05-16T01:51:48.429Z,1015.09
2019-05-16T01:52:48.766Z,1015.13
2019-05-16T01:53:48.793Z,1015.10
2019-05-16T01:54:48.178Z,1015.14
2019-05-16T01:55:48.809Z,1015.13
2019-05-16T01:56:48.087Z,1015.11
2019-05-16T01:57:48.206Z,1015.09
2019-05-16T01:58:49.041Z,1015.12
2019-05-16T01:59:48.571Z,1015.16
2019-05-16T02:00:58.131Z,1015.14
2019-05-16T02:01:48.615Z,1015.10
2019-05-16T02:02:48.745Z,1015.10
2019-05-16T02:03:48.167Z,1015.07
2019-05-16T02:04:48.537Z,1015.04
2019-05-16T02:05:48.104Z,1015.04
2019-05-16T02:06:53.722Z,1015.01
2019-05-16T02:07:48.559Z,1014.98
2019-05-16T02:08:48.671Z,1015.05
2019-05-16T02:09:47.758Z,1015.02
2019-05-16T02:10:48.062Z,1015.01
2019-05-16T02:11:48.124Z,1015.01
2019-05-16T02:12:49.007Z,1014.96
2019-05-16T02:13:48.528Z,1015.06
2019-05-16T02:14:48.114Z,1015.00
2019-05-16T02:15:48.853Z,1015.01
2019-05-16T02:16:47.793Z,1015.07
2019-05-16T06:24:30.538Z,1013.98
2019-05-16T06:25:31.465Z,1013.98
2019-05-16T06:26:30.371Z,1013.95
2019-05-16T06:27:30.364Z,1013.96
2019-05-16T06:28:30.759Z,1013.97
2019-05-16T06:29:30.982Z,1014.03
2019-05-16T06:30:30.578Z,1014.01
2019-05-16T06:31:31.332Z,1014.01
2019-05-16T06:32:30.434Z,1013.88
2019-05-16T06:33:30.545Z,1013.92
2019-05-16T06:34:30.295Z,1013.95
2019-05-16T06:35:30.063Z,1013.89
2019-05-16T06:36:30.578Z,1013.91
2019-05-16T06:37:30.926Z,1013.95
2019-05-16T06:38:30.107Z,1013.91
2019-05-16T06:39:41.277Z,1013.90
2019-05-16T06:40:30.788Z,1013.89
2019-05-16T06:41:30.448Z,1013.89
2019-05-16T06:42:30.090Z,1013.82
2019-05-16T06:43:30.232Z,1013.78
2019-05-16T06:44:30.847Z,1013.80
2019-05-16T06:45:31.982Z,1013.78
2019-05-16T06:46:30.692Z,1013.81
2019-05-16T06:47:30.520Z,1013.86
2019-05-16T06:48:30.340Z,1013.81
2019-05-16T06:49:30.371Z,1013.88
2019-05-16T06:50:29.841Z,1013.78
2019-05-16T06:51:30.586Z,1013.79
2019-05-16T06:52:30.155Z,1013.85
2019-05-16T06:53:29.989Z,1013.90
2019-05-16T06:54:29.983Z,1013.83
2019-05-16T06:55:29.719Z,1013.86
2019-05-16T06:56:30.884Z,1013.81
2019-05-16T06:57:30.212Z,1013.84
2019-05-16T06:58:30.272Z,1013.80
2019-05-16T06:59:29.810Z,1013.73
2019-05-16T07:00:30.232Z,1013.76
2019-05-16T07:01:29.808Z,1013.76
2019-05-16T07:02:33.670Z,1013.71
2019-05-16T07:03:30.851Z,1013.68
2019-05-16T07:04:30.514Z,1013.76
2019-05-16T07:05:29.990Z,1013.75
2019-05-16T07:06:48.499Z,1013.75
2019-05-16T07:07:30.847Z,1013.67
2019-05-16T07:08:30.983Z,1013.69
2019-05-16T07:09:30.127Z,1013.69
2019-05-16T07:10:30.639Z,1013.67
2019-05-16T07:11:30.653Z,1013.68
2019-05-16T07:12:33.379Z,1013.70
2019-05-16T07:13:30.454Z,1013.70
2019-05-16T07:14:31.312Z,1013.56
2019-05-16T07:15:29.837Z,1013.57
2019-05-16T07:16:29.990Z,1013.57
2019-05-16T07:17:30.659Z,1013.60
2019-05-16T07:18:30.943Z,1013.63
2019-05-16T07:19:30.176Z,1013.60
2019-05-16T07:20:30.161Z,1013.52
2019-05-16T07:21:31.251Z,1013.54
2019-05-16T07:22:31.232Z,1013.53
2019-05-16T07:23:29.863Z,1013.50
2019-05-16T07:24:30.536Z,1013.52
2019-05-16T07:25:30.083Z,1013.44
2019-05-16T07:26:30.971Z,1013.50
2019-05-16T07:27:30.921Z,1013.44
2019-05-16T07:28:30.055Z,1013.44
2019-05-16T07:29:30.853Z,1013.45
2019-05-16T07:30:30.297Z,1013.44
2019-05-16T07:31:30.051Z,1013.43
2019-05-16T07:32:30.255Z,1013.43
2019-05-16T07:33:31.163Z,1013.52
2019-05-16T07:34:31.191Z,1013.47
2019-05-16T07:35:30.781Z,1013.52
2019-05-16T07:36:31.338Z,1013.46
2019-05-16T07:37:31.448Z,1013.42
2019-05-16T07:38:30.966Z,1013.37
2019-05-16T07:39:30.740Z,1013.40
2019-05-16T07:40:30.852Z,1013.38
2019-05-16T07:41:31.079Z,1013.38
2019-05-16T07:42:30.774Z,1013.40
2019-05-16T07:43:30.852Z,1013.42
2019-05-16T07:44:31.054Z,1013.42
2019-05-16T07:45:30.880Z,1013.37
2019-05-16T07:46:31.349Z,1013.33
2019-05-16T07:47:30.967Z,1013.24
2019-05-16T07:48:31.598Z,1013.25
2019-05-16T07:49:30.466Z,1013.26
2019-05-16T07:50:30.023Z,1013.29
2019-05-16T07:51:31.064Z,1013.26
2019-05-16T07:52:35.496Z,1013.34
2019-05-16T07:53:32.967Z,1013.27
2019-05-16T07:54:34.034Z,1013.26
2019-05-16T07:55:30.856Z,1013.30
2019-05-16T07:56:31.029Z,1013.29
2019-05-16T07:57:30.643Z,1013.27
2019-05-16T07:58:31.327Z,1013.26
2019-05-16T07:59:29.935Z,1013.26
2019-05-16T08:00:48.468Z,1013.31
2019-05-16T08:01:30.654Z,1013.25
2019-05-16T08:02:31.129Z,1013.26
2019-05-16T08:03:30.339Z,1013.30
2019-05-16T08:04:30.361Z,1013.29
2019-05-16T08:05:29.910Z,1013.27
2019-05-16T08:06:31.091Z,1013.23
2019-05-16T08:07:33.176Z,1013.28
2019-05-16T08:08:31.474Z,1013.29
2019-05-16T08:09:30.625Z,1013.25
2019-05-16T08:10:38.096Z,1013.14
2019-05-16T08:11:30.413Z,1013.13
2019-05-16T08:12:32.819Z,1013.20
2019-05-16T08:13:30.858Z,1013.21
2019-05-16T08:14:30.432Z,1013.18
2019-05-16T08:15:30.414Z,1013.21
2019-05-16T08:16:30.627Z,1013.19
2019-05-16T08:17:31.294Z,1013.12
2019-05-16T08:18:30.259Z,1013.18
2019-05-16T08:19:30.561Z,1013.11
2019-05-16T08:20:31.239Z,1013.17
2019-05-16T08:21:30.847Z,1013.15
2019-05-16T08:22:30.628Z,1013.15
2019-05-16T08:23:30.553Z,1013.10
2019-05-16T08:24:30.968Z,1013.07
2019-05-16T08:25:31.230Z,1013.10
2019-05-16T08:26:32.368Z,1013.13
2019-05-16T08:28:30.850Z,1013.01
2019-05-16T08:29:31.616Z,1013.06
2019-05-16T08:30:31.609Z,1013.03
2019-05-16T08:31:31.702Z,1012.99
2019-05-16T08:32:31.243Z,1012.97
2019-05-16T08:33:31.198Z,1012.99
2019-05-16T08:34:31.966Z,1013.05
2019-05-16T08:35:31.453Z,1013.04
2019-05-16T08:36:30.729Z,1012.98
2019-05-16T08:37:41.351Z,1012.95
2019-05-16T08:38:30.892Z,1012.96
2019-05-16T08:39:31.042Z,1012.94
2019-05-16T08:40:31.339Z,1012.95
2019-05-16T08:41:31.273Z,1012.88
2019-05-16T08:42:32.143Z,1012.77
2019-05-16T08:43:31.298Z,1012.84
2019-05-16T08:44:31.664Z,1012.89
2019-05-16T08:45:31.361Z,1012.87
2019-05-16T08:46:31.923Z,1012.83
2019-05-16T08:47:31.860Z,1012.87
2019-05-16T08:48:31.438Z,1012.89
2019-05-16T08:49:30.702Z,1012.87
2019-05-16T08:50:10.797Z,1013.07
2019-05-16T08:50:28.335Z,1012.83
2019-05-16T08:51:32.805Z,1012.85
2019-05-16T08:52:31.504Z,1012.80
2019-05-16T08:53:31.411Z,1012.81
2019-05-16T08:54:31.644Z,1012.81
2019-05-16T08:55:31.164Z,1012.72
2019-05-16T08:56:31.463Z,1012.84
2019-05-16T08:57:32.529Z,1012.82
2019-05-16T08:58:34.363Z,1012.84
2019-05-16T08:59:33.577Z,1012.81
2019-05-16T09:00:33.117Z,1012.79
2019-05-16T09:01:34.477Z,1012.79
2019-05-16T09:02:36.279Z,1012.87
2019-05-16T09:03:32.068Z,1012.83
2019-05-16T09:04:33.319Z,1012.80
2019-05-16T09:05:31.467Z,1012.82
2019-05-16T09:06:31.662Z,1012.84
2019-05-16T09:07:31.598Z,1012.83
2019-05-16T09:08:28.144Z,1012.82
2019-05-16T09:09:41.663Z,1012.81
2019-05-16T09:10:55.757Z,1012.76
2019-05-16T09:11:39.131Z,1012.78
2019-05-16T09:12:29.092Z,1012.75
2019-05-16T09:13:28.100Z,1012.79
2019-05-16T09:14:31.885Z,1012.74
2019-05-16T09:15:29.055Z,1012.80
2019-05-16T09:16:28.058Z,1012.74
2019-05-16T09:17:28.044Z,1012.76
2019-05-16T09:18:28.980Z,1012.79
2019-05-16T09:19:28.011Z,1012.71
2019-05-16T09:20:28.262Z,1012.73
2019-05-16T09:21:27.997Z,1012.68
2019-05-16T09:22:28.359Z,1012.70
2019-05-16T09:23:27.971Z,1012.68
2019-05-16T09:24:27.981Z,1012.70
2019-05-16T09:25:27.948Z,1012.70
2019-05-16T09:26:28.028Z,1012.67
2019-05-16T09:27:27.927Z,1012.62
2019-05-16T09:28:28.466Z,1012.62
2019-05-16T09:29:27.899Z,1012.60
2019-05-16T09:30:27.921Z,1012.61
2019-05-16T09:31:27.881Z,1012.61
2019-05-16T09:32:28.154Z,1012.56
2019-05-16T09:33:27.861Z,1012.64
2019-05-16T09:34:28.444Z,1012.56
2019-05-16T09:35:28.146Z,1012.49
2019-05-16T09:36:28.297Z,1012.53
2019-05-16T09:37:27.818Z,1012.47
2019-05-16T09:38:30.381Z,1012.53
2019-05-16T09:39:28.105Z,1012.52
2019-05-16T09:40:27.989Z,1012.56
2019-05-16T09:41:46.270Z,1012.54
2019-05-16T09:42:28.766Z,1012.48
2019-05-16T09:43:28.287Z,1012.50
2019-05-16T09:44:27.734Z,1012.46
2019-05-16T09:45:27.721Z,1012.48
2019-05-16T09:46:27.731Z,1012.52
2019-05-16T09:47:28.392Z,1012.49
2019-05-16T09:48:30.538Z,1012.48
2019-05-16T09:49:29.306Z,1012.41
2019-05-16T09:50:27.664Z,1012.44
2019-05-16T09:51:27.654Z,1012.39
2019-05-16T09:52:27.650Z,1012.46
2019-05-16T09:53:27.978Z,1012.40
2019-05-16T09:54:27.618Z,1012.46
2019-05-16T09:55:27.607Z,1012.41
2019-05-16T09:56:27.594Z,1012.42
2019-05-16T09:57:27.940Z,1012.45
2019-05-16T09:58:28.096Z,1012.32
2019-05-16T09:59:27.567Z,1012.31
2019-05-16T10:00:27.549Z,1012.27
2019-05-16T10:01:27.774Z,1012.26
2019-05-16T10:02:27.615Z,1012.33
2019-05-16T10:03:27.520Z,1012.32
2019-05-16T10:04:27.506Z,1012.21
2019-05-16T10:05:27.506Z,1012.20
2019-05-16T10:06:27.744Z,1012.24
2019-05-16T10:07:28.464Z,1012.31
2019-05-16T10:08:27.465Z,1012.25
2019-05-16T10:09:41.162Z,1012.43
2019-05-16T10:10:28.441Z,1012.20
2019-05-16T10:11:31.005Z,1012.22
2019-05-16T10:12:27.425Z,1012.19
2019-05-16T10:13:27.994Z,1012.32
2019-05-16T10:14:27.428Z,1012.23
2019-05-16T10:15:27.389Z,1012.24
2019-05-16T10:16:27.639Z,1012.23
2019-05-16T10:17:27.456Z,1012.24
2019-05-16T10:18:27.959Z,1012.23
2019-05-16T10:19:27.687Z,1012.24
2019-05-16T10:20:27.547Z,1012.28
2019-05-16T10:21:27.380Z,1012.35
2019-05-16T10:22:27.406Z,1012.29
2019-05-16T10:23:28.433Z,1012.20
2019-05-16T10:24:27.286Z,1012.13
2019-05-16T10:25:27.878Z,1012.14
2019-05-16T10:26:27.933Z,1012.16
2019-05-16T10:27:27.290Z,1012.09
2019-05-16T10:28:27.814Z,1012.10
2019-05-16T10:29:27.623Z,1012.02
2019-05-16T10:30:27.220Z,1012.02
2019-05-16T10:31:41.607Z,1012.07
2019-05-16T10:32:28.218Z,1012.19
2019-05-16T10:33:27.726Z,1012.35
2019-05-16T10:34:27.175Z,1012.13
2019-05-16T10:35:29.970Z,1012.03
2019-05-16T10:36:28.183Z,1012.32
2019-05-16T10:37:27.168Z,1011.99
2019-05-16T10:38:28.544Z,1012.02
2019-05-16T10:39:27.125Z,1012.03
2019-05-16T10:40:27.500Z,1011.98
2019-05-16T10:41:27.105Z,1012.03
2019-05-16T10:42:28.937Z,1012.01
2019-05-16T10:43:27.087Z,1012.06
2019-05-16T10:44:28.052Z,1011.90
2019-05-16T10:45:27.376Z,1011.80
2019-05-16T10:46:27.180Z,1011.89
2019-05-16T10:47:31.009Z,1011.83
2019-05-16T10:48:27.237Z,1011.83
2019-05-16T10:49:36.942Z,1011.90
2019-05-16T10:50:28.085Z,1011.84
2019-05-16T10:51:27.146Z,1011.82
2019-05-16T10:52:27.176Z,1011.82
2019-05-16T10:53:57.107Z,1011.88
2019-05-16T10:54:28.097Z,1012.13
2019-05-16T10:55:27.761Z,1011.96
2019-05-16T10:56:26.938Z,1012.13
2019-05-16T10:57:29.639Z,1011.95
2019-05-16T10:58:36.414Z,1012.16
2019-05-16T11:00:57.606Z,1011.94
2019-05-16T11:01:31.045Z,1011.84
2019-05-16T11:02:27.566Z,1011.81
2019-05-16T11:03:27.633Z,1012.03
2019-05-16T11:04:37.625Z,1011.95
2019-05-16T11:05:33.711Z,1011.81
2019-05-16T11:06:29.286Z,1011.73
2019-05-16T11:07:29.610Z,1011.78
2019-05-16T11:08:26.824Z,1011.74
2019-05-16T11:09:26.802Z,1011.69
2019-05-16T11:10:29.564Z,1011.75
2019-05-16T11:11:27.489Z,1011.75
2019-05-16T11:12:45.321Z,1011.74
2019-05-16T11:13:28.207Z,1011.76
2019-05-16T11:14:28.102Z,1011.83
2019-05-16T11:15:27.822Z,1011.70
2019-05-16T11:16:27.442Z,1011.77
2019-05-16T11:17:27.874Z,1011.82
2019-05-16T11:18:27.338Z,1011.98
2019-05-16T11:19:28.234Z,1012.01
2019-05-16T11:20:27.075Z,1012.13
2019-05-16T11:21:26.987Z,1011.60
2019-05-16T11:22:29.535Z,1011.66
2019-05-16T11:23:30.941Z,1011.84
2019-05-16T11:24:29.012Z,1012.06
2019-05-16T11:25:31.815Z,1011.98
2019-05-16T11:26:30.247Z,1011.70
2019-05-16T11:27:26.617Z,1011.77
2019-05-16T11:28:26.651Z,1011.97
2019-05-16T11:29:26.596Z,1012.00
2019-05-16T11:30:28.089Z,1011.99
2019-05-16T11:31:26.881Z,1012.04
2019-05-16T11:32:27.068Z,1011.96
2019-05-16T11:33:28.190Z,1012.04
2019-05-16T11:34:26.783Z,1011.95
2019-05-16T11:35:27.292Z,1012.01
2019-05-16T11:36:26.878Z,1011.99
2019-05-16T11:37:27.907Z,1011.91
2019-05-16T11:38:26.513Z,1012.00
2019-05-16T11:39:26.493Z,1011.92
2019-05-16T11:40:26.485Z,1011.93
2019-05-16T11:41:27.534Z,1011.90
2019-05-16T11:42:27.986Z,1011.93
2019-05-16T11:43:27.835Z,1011.93
2019-05-16T11:44:28.721Z,1011.86
2019-05-16T11:45:27.183Z,1011.81
2019-05-16T11:46:28.213Z,1011.84
2019-05-16T11:47:27.223Z,1011.84
2019-05-16T11:48:29.516Z,1011.84
2019-05-16T11:49:27.544Z,1011.90
2019-05-16T11:50:28.028Z,1011.87
2019-05-16T11:51:27.182Z,1011.85
2019-05-16T11:52:26.378Z,1011.79
2019-05-16T11:53:28.180Z,1011.78
2019-05-16T11:54:26.669Z,1011.76
2019-05-16T11:55:33.785Z,1011.72
2019-05-16T11:56:27.334Z,1011.59
2019-05-16T11:57:26.325Z,1011.70
2019-05-16T11:58:26.698Z,1011.63
2019-05-16T11:59:26.315Z,1011.65
2019-05-16T12:00:30.115Z,1011.55
2019-05-16T12:01:27.620Z,1011.16
2019-05-16T12:02:27.875Z,1011.03
2019-05-16T12:03:28.154Z,1011.21
2019-05-16T12:04:28.069Z,1011.22
2019-05-16T12:05:27.103Z,1011.24
2019-05-16T12:06:26.798Z,1011.23
2019-05-16T12:07:33.405Z,1011.03
2019-05-16T12:08:27.214Z,1011.10
2019-05-16T12:09:33.365Z,1011.13
2019-05-16T12:10:27.203Z,1011.16
2019-05-16T12:11:27.495Z,1011.27
2019-05-16T12:12:27.150Z,1011.09
2019-05-16T12:13:31.779Z,1011.31
2019-05-16T12:14:27.317Z,1011.34
2019-05-16T12:15:27.337Z,1011.26
2019-05-16T12:16:27.531Z,1011.28
2019-05-16T12:17:28.021Z,1011.27
2019-05-16T12:18:26.543Z,1011.18
2019-05-16T12:19:34.731Z,1011.22
2019-05-16T12:20:27.492Z,1011.15
2019-05-16T12:21:27.481Z,1011.09
2019-05-16T12:22:26.827Z,1011.10
2019-05-16T12:23:27.609Z,1010.83
2019-05-16T12:24:33.144Z,1010.84
2019-05-16T12:25:27.432Z,1010.69
2019-05-16T12:26:28.144Z,1010.53
2019-05-16T12:27:32.783Z,1010.65
2019-05-16T12:28:27.214Z,1010.56
2019-05-16T12:29:28.092Z,1010.59
2019-05-16T12:30:25.998Z,1010.54
2019-05-16T12:31:25.987Z,1010.53
2019-05-16T12:32:27.651Z,1010.51
2019-05-16T12:33:27.446Z,1010.52
2019-05-16T12:34:25.967Z,1010.50
2019-05-16T12:35:27.725Z,1010.37
2019-05-16T12:36:26.796Z,1010.37
2019-05-16T12:37:27.606Z,1010.47
2019-05-16T12:38:27.639Z,1010.40
2019-05-16T12:39:26.851Z,1010.37
2019-05-16T12:40:26.847Z,1010.34
2019-05-16T12:41:28.520Z,1010.31
2019-05-16T12:42:27.086Z,1010.30
2019-05-16T12:43:44.147Z,1010.33
2019-05-16T12:44:27.028Z,1010.30
2019-05-16T12:45:27.543Z,1010.32
2019-05-16T12:46:27.178Z,1010.26
2019-05-16T12:47:25.826Z,1010.22
2019-05-16T12:48:25.833Z,1010.15
2019-05-16T12:49:25.820Z,1010.15
2019-05-16T12:50:28.734Z,1010.11
2019-05-16T12:51:26.439Z,1010.02
2019-05-16T12:52:27.070Z,1010.05
2019-05-16T12:53:31.682Z,1010.04
2019-05-16T12:54:27.566Z,1010.04
2019-05-16T12:55:27.121Z,1009.98
2019-05-16T12:56:27.218Z,1010.01
2019-05-16T12:57:27.709Z,1010.03
2019-05-16T12:58:37.534Z,1010.00
2019-05-16T12:59:26.836Z,1009.93
2019-05-16T13:00:27.622Z,1009.94
2019-05-16T13:01:30.480Z,1009.88
2019-05-16T13:02:27.329Z,1009.96
2019-05-16T13:03:27.751Z,1009.98
2019-05-16T13:04:27.924Z,1009.89
2019-05-16T13:05:26.963Z,1009.92
2019-05-16T13:06:27.767Z,1009.86
2019-05-16T13:07:26.938Z,1009.87
2019-05-16T13:08:26.806Z,1009.88
2019-05-16T13:09:26.525Z,1009.85
2019-05-16T13:10:26.981Z,1009.88
2019-05-16T13:11:27.009Z,1009.89
2019-05-16T13:12:27.070Z,1009.82
2019-05-16T13:13:27.766Z,1009.79
2019-05-16T13:14:27.950Z,1009.82
2019-05-16T13:15:27.331Z,1009.80
2019-05-16T13:16:28.075Z,1009.79
2019-05-16T13:17:27.497Z,1009.75
2019-05-16T13:18:27.561Z,1009.77
2019-05-16T13:19:31.896Z,1009.80
2019-05-16T13:20:26.795Z,1009.70
2019-05-16T13:21:27.616Z,1009.71
2019-05-16T13:22:27.573Z,1009.64
2019-05-16T13:23:26.924Z,1009.61
2019-05-16T13:24:27.834Z,1009.60
2019-05-16T13:25:27.300Z,1009.57
2019-05-16T13:26:25.413Z,1009.56
2019-05-16T13:27:25.412Z,1009.54
2019-05-16T13:28:25.387Z,1009.58
2019-05-16T13:29:27.464Z,1009.58
2019-05-16T13:30:26.852Z,1009.54
2019-05-16T13:31:28.589Z,1009.49
2019-05-16T13:32:27.070Z,1009.49
2019-05-16T13:33:27.129Z,1009.47
2019-05-16T13:34:28.077Z,1009.41
2019-05-16T13:35:27.050Z,1009.41
2019-05-16T13:36:27.196Z,1009.44
2019-05-16T13:37:27.640Z,1009.47
2019-05-16T13:38:27.902Z,1009.45
2019-05-16T13:39:27.504Z,1009.41
2019-05-16T13:40:27.480Z,1009.44
2019-05-16T13:41:27.056Z,1009.39
2019-05-16T13:42:27.200Z,1009.36
2019-05-16T13:43:26.997Z,1009.34
2019-05-16T13:44:27.482Z,1009.31
2019-05-16T13:45:27.185Z,1009.27
2019-05-16T13:46:26.544Z,1009.34
2019-05-16T13:47:26.867Z,1009.39
2019-05-16T13:48:26.769Z,1009.33
2019-05-16T13:49:26.821Z,1009.32
2019-05-16T13:50:27.308Z,1009.46
2019-05-16T13:51:26.644Z,1009.58
2019-05-16T13:52:28.090Z,1009.64
2019-05-16T13:53:27.154Z,1009.68
2019-05-16T13:54:26.951Z,1009.44
2019-05-16T13:55:27.146Z,1009.24
2019-05-16T13:56:27.313Z,1009.19
2019-05-16T13:57:28.036Z,1009.17
2019-05-16T13:58:28.103Z,1009.14
2019-05-16T13:59:27.839Z,1009.13
2019-05-16T14:00:27.754Z,1009.18
2019-05-16T14:01:27.627Z,1009.11
2019-05-16T14:02:26.681Z,1009.14
2019-05-16T14:03:27.516Z,1009.10
2019-05-16T14:04:26.418Z,1009.06
2019-05-16T14:05:26.768Z,1009.06
2019-05-16T14:06:24.978Z,1009.03
2019-05-16T14:07:24.970Z,1009.02
2019-05-16T14:08:26.816Z,1009.08
2019-05-16T14:09:26.834Z,1009.09
2019-05-16T14:10:29.288Z,1009.03
2019-05-16T14:11:24.924Z,1009.01
2019-05-16T14:12:26.786Z,1008.98
2019-05-16T14:13:24.914Z,1008.97
2019-05-16T14:14:34.779Z,1008.99
2019-05-16T14:15:27.034Z,1009.13
2019-05-16T14:16:26.921Z,1009.07
2019-05-16T14:17:27.323Z,1009.06
2019-05-16T14:18:27.183Z,1009.01
2019-05-16T14:19:27.322Z,1009.00
2019-05-16T14:20:24.828Z,1009.04
2019-05-16T14:21:24.842Z,1009.05
2019-05-16T14:22:27.605Z,1009.14
2019-05-16T14:23:28.091Z,1009.11
2019-05-16T14:24:27.934Z,1009.08
2019-05-16T14:25:24.790Z,1009.10
2019-05-16T14:26:24.879Z,1008.95
2019-05-16T14:27:26.883Z,1009.10
2019-05-16T14:28:25.710Z,1009.01
2019-05-16T14:29:24.729Z,1008.94
2019-05-16T14:30:24.765Z,1009.04
2019-05-16T14:31:24.730Z,1008.93
2019-05-16T14:32:24.706Z,1008.83
2019-05-16T14:33:24.687Z,1009.00
2019-05-16T14:34:27.659Z,1008.99
2019-05-16T14:35:26.676Z,1008.87
2019-05-16T14:36:27.808Z,1008.87
2019-05-16T14:37:26.779Z,1008.90
2019-05-16T14:38:26.964Z,1008.95
2019-05-16T14:39:28.078Z,1008.91
2019-05-16T14:40:24.608Z,1008.90
2019-05-16T14:41:24.638Z,1008.87
2019-05-16T14:42:27.814Z,1008.91
2019-05-16T14:43:27.024Z,1008.92
2019-05-16T14:44:24.566Z,1008.87
2019-05-16T14:45:26.377Z,1008.93
2019-05-16T14:46:27.185Z,1008.91
2019-05-16T14:47:26.975Z,1008.97
2019-05-16T14:48:24.564Z,1008.98
2019-05-16T14:49:24.513Z,1008.90
2019-05-16T14:50:27.321Z,1008.93
2019-05-16T14:51:27.283Z,1008.89
2019-05-16T14:52:26.990Z,1008.88
2019-05-16T14:53:28.197Z,1008.93
2019-05-16T14:54:26.758Z,1008.92
2019-05-16T14:55:27.262Z,1008.97
2019-05-16T14:56:26.829Z,1009.01
2019-05-16T14:57:24.444Z,1008.97
2019-05-16T14:58:24.418Z,1008.89
2019-05-16T14:59:26.848Z,1008.89
2019-05-16T15:00:27.384Z,1009.01
2019-05-16T15:01:26.606Z,1008.95
2019-05-16T15:02:27.300Z,1008.95
2019-05-16T15:03:27.128Z,1008.97
2019-05-16T15:04:29.833Z,1008.93
2019-05-16T15:05:25.406Z,1008.95
2019-05-16T15:06:24.332Z,1009.00
2019-05-16T15:07:24.319Z,1009.00
2019-05-16T15:08:24.301Z,1008.95
2019-05-16T15:09:24.289Z,1008.92
2019-05-16T15:10:24.278Z,1008.93
2019-05-16T15:11:24.311Z,1008.93
2019-05-16T15:12:26.651Z,1008.89
2019-05-16T15:13:24.245Z,1008.85
2019-05-16T15:14:24.233Z,1008.92
2019-05-16T15:15:27.793Z,1008.97
2019-05-16T15:16:24.219Z,1008.99
2019-05-16T15:17:24.198Z,1009.02
2019-05-16T15:18:24.198Z,1009.02
2019-05-16T15:19:24.179Z,1008.99
2019-05-16T15:20:27.606Z,1008.99
2019-05-16T15:21:24.164Z,1008.90
2019-05-16T15:22:24.149Z,1008.91
2019-05-16T15:23:24.141Z,1009.00
2019-05-16T15:24:26.669Z,1008.93
2019-05-16T15:25:26.433Z,1008.94
2019-05-16T15:26:24.139Z,1008.92
2019-05-16T15:27:26.242Z,1008.93
2019-05-16T15:28:29.486Z,1008.99
2019-05-16T15:29:27.005Z,1008.93
2019-05-16T15:30:24.055Z,1008.91
2019-05-16T15:31:24.044Z,1008.82
2019-05-16T15:32:24.041Z,1008.89
2019-05-16T15:33:24.020Z,1008.84
2019-05-16T15:34:24.038Z,1008.88
2019-05-16T15:35:24.001Z,1008.81
2019-05-16T15:36:23.994Z,1008.82
2019-05-16T15:37:23.997Z,1008.82
2019-05-16T15:38:23.962Z,1008.83
2019-05-16T15:39:23.962Z,1008.76
2019-05-16T15:40:23.962Z,1008.83
2019-05-16T15:41:23.933Z,1008.73
2019-05-16T15:42:23.950Z,1008.69
2019-05-16T15:43:23.908Z,1008.70
2019-05-16T15:44:23.897Z,1008.66
2019-05-16T15:45:35.673Z,1008.63
2019-05-16T15:46:26.577Z,1008.55
2019-05-16T15:47:23.883Z,1008.63
2019-05-16T15:48:23.851Z,1008.57
2019-05-16T15:49:26.408Z,1008.64
2019-05-16T15:50:23.834Z,1008.66
2019-05-16T15:51:23.819Z,1008.64
2019-05-16T15:52:23.844Z,1008.61
2019-05-16T15:53:23.813Z,1008.60
2019-05-16T15:54:23.789Z,1008.63
2019-05-16T15:55:23.777Z,1008.62
2019-05-16T15:56:23.771Z,1008.66
2019-05-16T15:57:23.769Z,1008.66
2019-05-16T15:58:23.743Z,1008.61
2019-05-16T15:59:23.735Z,1008.67
2019-05-16T16:00:23.733Z,1008.65
2019-05-16T16:01:23.711Z,1008.63
2019-05-16T16:02:23.709Z,1008.62
2019-05-16T16:03:23.713Z,1008.64
2019-05-16T16:04:23.679Z,1008.57
2019-05-16T16:05:23.670Z,1008.54
2019-05-16T16:06:23.655Z,1008.58
2019-05-16T16:07:23.677Z,1008.60
2019-05-16T16:08:23.633Z,1008.60
2019-05-16T16:09:23.620Z,1008.53
2019-05-16T16:10:23.622Z,1008.65
2019-05-16T16:11:23.602Z,1008.61
2019-05-16T16:12:23.623Z,1008.61
2019-05-16T16:13:23.593Z,1008.67